METAR Data
IDs: Format: Raw Decoded Include TAF

Data at: 2040 UTC 22 Sep 2020

METAR for:KADW (Andrews AFB, MD, US)
Text:KADW 221956Z AUTO 30008KT 10SM CLR 21/04 A3005 RMK AO2 SLP183 T02110038 FZRANO $
Temperature: 21.1°C ( 70°F)
Dewpoint: 3.8°C ( 39°F) [RH = 32%]
Pressure (altimeter):30.05 inches Hg (1017.7 mb) [Sea level pressure: 1018.3 mb]
Winds:from the WNW (300 degrees) at 9 MPH (8 knots; 4.1 m/s)
Visibility:10 or more sm (16+ km)
Ceiling:at least 12,000 feet AGL
Clouds:sky clear below 12,000 feet AGL
QC Flag:automated observation with no human augmentation; SOME DATA ABOVE MAY BE INACCURATE!!!"$" is an indication the sensor requires maintenance.